Terminal Aerodrome Forecast
Issued by NWS

Current Version | Previous Version | Graphics & Text | Print | Product List | Glossary On
Versions: 1 2 3 4 5 6 7 8 9 10 11 12 13 14 15 16 17 18 19 20
000
FTUS41 KILN 160300 AAA
TAFLCK
TAF AMD
KLCK 160321Z 1603/1624 13006KT P6SM BKN040 OVC080
     FM160400 16006KT P6SM BKN025 OVC040
      TEMPO 1604/1606 -SHRA
     FM160800 17009KT P6SM VCSH BKN015 OVC025
     FM161300 20011KT 5SM BR OVC012
     FM161800 23012G20KT P6SM VCSH OVC015=

USA.gov is the U.S. government's official web portal to all federal, state and local government web resources and services.